Terminal Aerodrome Forecast
Issued by NWS

Home | Current Version | Previous Version | Text Only | Print | Product List | Glossary On
Versions: 1 2 3 4 5 6 7 8 9 10 11 12 13 14 15 16 17
000
FTUS43 KLSX 190312 AAA
TAFCPS
TAF AMD
KCPS 190312Z 1903/1924 VRB04KT 5SM -SHRA SCT050 OVC080
     FM190400 VRB03KT P6SM SCT050 BKN120
     FM190900 00000KT 3SM BR SCT010
     FM191400 VRB04KT P6SM SCT030 BKN250
     FM191800 17006KT P6SM SCT040 BKN250=

USA.gov is the U.S. government's official web portal to all federal, state and local government web resources and services.